Map

Track Data

SID SEASON NUMBER BASIN SUBBASIN NAME ISO_TIME NATURE LAT LON WMO_WIND WMO_PRES WMO_AGENCY TRACK_TYPE DIST2LAND LANDFALL IFLAG USA_AGENCY USA_ATCF_ID USA_LAT USA_LON USA_RECORD USA_STATUS USA_WIND USA_PRES USA_SSHS USA_R34_NE USA_R34_SE USA_R34_SW USA_R34_NW USA_R50_NE USA_R50_SE USA_R50_SW USA_R50_NW USA_R64_NE USA_R64_SE USA_R64_SW USA_R64_NW USA_POCI USA_ROCI USA_RMW USA_EYE TOKYO_LAT TOKYO_LON TOKYO_GRADE TOKYO_WIND TOKYO_PRES TOKYO_R50_DIR TOKYO_R50_LONG TOKYO_R50_SHORT TOKYO_R30_DIR TOKYO_R30_LONG TOKYO_R30_SHORT TOKYO_LAND CMA_LAT CMA_LON CMA_CAT CMA_WIND CMA_PRES HKO_LAT HKO_LON HKO_CAT HKO_WIND HKO_PRES NEWDELHI_LAT NEWDELHI_LON NEWDELHI_GRADE NEWDELHI_WIND NEWDELHI_PRES NEWDELHI_CI NEWDELHI_DP NEWDELHI_POCI REUNION_LAT REUNION_LON REUNION_TYPE REUNION_WIND REUNION_PRES REUNION_TNUM REUNION_CI REUNION_RMW REUNION_R34_NE REUNION_R34_SE REUNION_R34_SW REUNION_R34_NW REUNION_R50_NE REUNION_R50_SE REUNION_R50_SW REUNION_R50_NW REUNION_R64_NE REUNION_R64_SE REUNION_R64_SW REUNION_R64_NW BOM_LAT BOM_LON BOM_TYPE BOM_WIND BOM_PRES BOM_TNUM BOM_CI BOM_RMW BOM_R34_NE BOM_R34_SE BOM_R34_SW BOM_R34_NW BOM_R50_NE BOM_R50_SE BOM_R50_SW BOM_R50_NW BOM_R64_NE BOM_R64_SE BOM_R64_SW BOM_R64_NW BOM_ROCI BOM_POCI BOM_EYE BOM_POS_METHOD BOM_PRES_METHOD NADI_LAT NADI_LON NADI_CAT NADI_WIND NADI_PRES WELLINGTON_LAT WELLINGTON_LON WELLINGTON_WIND WELLINGTON_PRES DS824_LAT DS824_LON DS824_STAGE DS824_WIND DS824_PRES TD9636_LAT TD9636_LON TD9636_STAGE TD9636_WIND TD9636_PRES TD9635_LAT TD9635_LON TD9635_WIND TD9635_PRES TD9635_ROCI NEUMANN_LAT NEUMANN_LON NEUMANN_CLASS NEUMANN_WIND NEUMANN_PRES MLC_LAT MLC_LON MLC_CLASS MLC_WIND MLC_PRES USA_GUST BOM_GUST BOM_GUST_PER REUNION_GUST REUNION_GUST_PER USA_SEAHGT USA_SEARAD_NE USA_SEARAD_SE USA_SEARAD_SW USA_SEARAD_NW STORM_SPEED STORM_DIR
1909060S13056 1909 8 SI MM NOT_NAMED 1909-03-01 06:00:00 NR -13.1500 56.3000 reunion main 668 644 _____O____O___ -1 -13.1000 56.7000 99 9.90000 -13.2000 55.9000 7 4 257
1909060S13056 1909 8 SI MM NOT_NAMED 1909-03-01 09:00:00 NR -13.1953 56.0919 main 644 623 _____P____P___ -1 -13.1184 56.6352 99 -13.2722 55.5485 7 4 257
1909060S13056 1909 8 SI MM NOT_NAMED 1909-03-01 12:00:00 NR -13.2414 55.8817 main 623 599 _____P____P___ -1 -13.1374 56.5658 99 -13.3453 55.1976 7 4 257
1909060S13056 1909 8 SI MM NOT_NAMED 1909-03-01 15:00:00 NR -13.2892 55.6676 main 599 579 _____P____P___ -1 -13.1576 56.4873 99 -13.4208 54.8478 7 4 257
1909060S13056 1909 8 SI MM NOT_NAMED 1909-03-01 18:00:00 NR -13.3399 55.4476 main 569 545 _____P____O___ -1 -13.1798 56.3953 99 -13.5000 54.5000 7 4 256
1909060S13056 1909 8 SI MM NOT_NAMED 1909-03-01 21:00:00 NR -13.3938 55.2204 main 545 525 _____P____P___ -1 -13.2045 56.2851 99 -13.5831 54.1557 7 5 256
1909060S13056 1909 8 SI MM NOT_NAMED 1909-03-02 00:00:00 NR -13.4487 54.9861 main 525 500 _____P____P___ -1 -13.2324 56.1521 99 -13.6649 53.8201 7 5 257
1909060S13056 1909 8 SI MM NOT_NAMED 1909-03-02 03:00:00 NR -13.5017 54.7457 main 491 471 _____P____P___ -1 -13.2640 55.9920 99 -13.7393 53.4994 7 5 258
1909060S13056 1909 8 SI MM NOT_NAMED 1909-03-02 06:00:00 NR -13.5500 54.5000 reunion main 471 446 _____O____O___ -1 -13.3000 55.8000 99 9.90000 -13.8000 53.2000 7 5 260
1909060S13056 1909 8 SI MM NOT_NAMED 1909-03-02 09:00:00 NR -13.5860 54.2486 main 437 417 _____P____P___ -1 -13.3408 55.5729 99 -13.8311 52.9242 7 5 262
1909060S13056 1909 8 SI MM NOT_NAMED 1909-03-02 12:00:00 NR -13.6184 53.9910 main 417 383 _____P____P___ -1 -13.3870 55.3122 99 -13.8498 52.6698 7 5 262
1909060S13056 1909 8 SI MM NOT_NAMED 1909-03-02 15:00:00 NR -13.6538 53.7256 main 383 364 _____P____P___ -1 -13.4389 55.0208 99 -13.8686 52.4305 7 5 261
1909060S13056 1909 8 SI MM NOT_NAMED 1909-03-02 18:00:00 NR -13.6985 53.4507 main 364 330 _____P____O___ -1 -13.4970 54.7015 99 -13.9000 52.2000 7 6 259
1909060S13056 1909 8 SI MM NOT_NAMED 1909-03-02 21:00:00 NR -13.7632 53.1624 main 330 302 _____P____P___ -1 -13.5617 54.3569 99 -13.9646 51.9679 7 6 256
1909060S13056 1909 8 SI MM NOT_NAMED 1909-03-03 00:00:00 NR -13.8379 52.8663 main 302 268 _____P____P___ -1 -13.6335 53.9900 99 -14.0424 51.7426 7 6 255
1909060S13056 1909 8 SI MM NOT_NAMED 1909-03-03 03:00:00 NR -13.9184 52.5622 main 268 235 _____P____P___ -1 -13.7128 53.6035 99 -14.1240 51.5210 7 6 255
1909060S13056 1909 8 SI MM NOT_NAMED 1909-03-03 06:00:00 NR -14.0000 52.2500 reunion main 235 191 _____O____O___ -1 -13.8000 53.2000 99 9.90000 -14.2000 51.3000 7 7 256
1909060S13056 1909 8 SI MM NOT_NAMED 1909-03-03 09:00:00 NR -14.0809 51.9121 main 191 157 _____P____P___ -1 -13.9046 52.7533 99 -14.2571 51.0709 7 7 256
1909060S13056 1909 8 SI MM NOT_NAMED 1909-03-03 12:00:00 NR -14.1631 51.5612 main 157 116 _____P____P___ -1 -14.0187 52.2800 99 -14.3075 50.8424 7 7 256
1909060S13056 1909 8 SI MM NOT_NAMED 1909-03-03 15:00:00 NR -14.2463 51.2053 main 116 82 _____P____P___ -1 -14.1387 51.7928 99 -14.3540 50.6178 7 7 256
1909060S13056 1909 8 SI MM NOT_NAMED 1909-03-03 18:00:00 NR -14.3304 50.8523 main 82 39 _____P____O___ -1 -14.2607 51.3046 99 -14.4000 50.4000 7 7 256
1909060S13056 1909 8 SI MM NOT_NAMED 1909-03-03 21:00:00 NR -14.4177 50.5085 main 39 10 _____P____P___ -1 -14.3813 50.8282 99 -14.4540 50.1888 7 7 255
1909060S13056 1909 8 SI MM NOT_NAMED 1909-03-04 00:00:00 NR -14.5022 50.1808 main 10 0 _____P____P___ -1 -14.4970 50.3766 99 -14.5074 49.9850 7 6 255
1909060S13056 1909 8 SI MM NOT_NAMED 1909-03-04 03:00:00 NR -14.5807 49.8758 main 0 0 _____P____P___ -1 -14.6043 49.9629 99 -14.5571 49.7888 7 6 255
1909060S13056 1909 8 SI MM NOT_NAMED 1909-03-04 06:00:00 NR -14.6500 49.6000 reunion main 0 0 _____O____O___ -1 -14.7000 49.6000 99 9.90000 -14.6000 49.6000 7 5 256
1909060S13056 1909 8 SI MM NOT_NAMED 1909-03-04 09:00:00 NR -14.6969 49.3785 main 0 0 _____P____P___ -1 -14.7699 49.3434 99 -14.6240 49.4137 7 4 258
1909060S13056 1909 8 SI MM NOT_NAMED 1909-03-04 12:00:00 NR -14.7359 49.1860 main 0 0 _____P____P___ -1 -14.8294 49.1371 99 -14.6424 49.2349 7 4 258
1909060S13056 1909 8 SI MM NOT_NAMED 1909-03-04 15:00:00 NR -14.7728 49.0165 main 0 0 _____P____P___ -1 -14.8810 48.9694 99 -14.6647 49.0637 7 3 256
1909060S13056 1909 8 SI MM NOT_NAMED 1909-03-04 18:00:00 NR -14.8135 48.8644 main 0 0 _____P____O___ -1 -14.9269 48.8287 99 -14.7000 48.9000 7 3 251
1909060S13056 1909 8 SI MM NOT_NAMED 1909-03-04 21:00:00 NR -14.8650 48.7351 main 0 0 _____P____P___ -1 -14.9696 48.7032 99 -14.7604 48.7671 7 3 246
1909060S13056 1909 8 SI MM NOT_NAMED 1909-03-05 00:00:00 NR -14.9229 48.6092 main 0 0 _____P____P___ -1 -15.0111 48.5810 99 -14.8347 48.6374 7 3 245
1909060S13056 1909 8 SI MM NOT_NAMED 1909-03-05 03:00:00 NR -14.9853 48.4698 main 0 0 _____P____P___ -1 -15.0539 48.4506 99 -14.9166 48.4890 7 3 247
1909060S13056 1909 8 SI MM NOT_NAMED 1909-03-05 06:00:00 NR -15.0500 48.3000 reunion main 0 0 _____O____O___ -1 -15.1000 48.3000 99 9.90000 -15.0000 48.3000 7 4 252
1909060S13056 1909 8 SI MM NOT_NAMED 1909-03-05 09:00:00 NR -15.1207 48.0453 main 0 0 _____P____P___ -1 -15.1620 48.0636 99 -15.0793 48.0270 7 5 255
1909060S13056 1909 8 SI MM NOT_NAMED 1909-03-05 12:00:00 NR -15.1922 47.7626 main 0 0 _____P____P___ -1 -15.2266 47.8100 99 -15.1579 47.7151 7 6 256
1909060S13056 1909 8 SI MM NOT_NAMED 1909-03-05 15:00:00 NR -15.2625 47.4708 main 0 0 _____P____P___ -1 -15.2925 47.5459 99 -15.2324 47.3957 7 6 256
1909060S13056 1909 8 SI MM NOT_NAMED 1909-03-05 18:00:00 NR -15.3293 47.1890 main 0 0 _____P____O___ -1 -15.3585 47.2780 99 -15.3000 47.1000 7 5 256
1909060S13056 1909 8 SI MM NOT_NAMED 1909-03-05 21:00:00 NR -15.3910 46.9323 main 0 0 _____P____P___ -1 -15.4234 47.0127 99 -15.3586 46.8518 7 5 255
1909060S13056 1909 8 SI MM NOT_NAMED 1909-03-06 00:00:00 NR -15.4534 46.7089 main 0 0 _____P____P___ -1 -15.4860 46.7569 99 -15.4098 46.6450 7 4 253
1909060S13056 1909 8 SI MM NOT_NAMED 1909-03-06 03:00:00 NR -15.5156 46.4999 main 10 0 _____P____P___ -1 -15.5453 46.5171 99 -15.4561 46.4656 7 4 252
1909060S13056 1909 8 SI MM NOT_NAMED 1909-03-06 06:00:00 NR -15.5800 46.3000 reunion main 10 10 _____O____O___ -1 -15.6000 46.3000 99 9.90000 -15.5000 46.3000 7 4 250
1909060S13056 1909 8 SI MM NOT_NAMED 1909-03-06 09:00:00 NR -15.6495 46.1106 main 22 11 _____P________ -1 -15.6495 46.1106 99 7 4 251
1909060S13056 1909 8 SI MM NOT_NAMED 1909-03-06 12:00:00 NR -15.6941 45.9470 main 15 15 _____P________ -1 -15.6941 45.9470 99 7 3 254
1909060S13056 1909 8 SI MM NOT_NAMED 1909-03-06 15:00:00 NR -15.7347 45.8054 main 22 11 _____P________ -1 -15.7347 45.8054 99 7 3 253
1909060S13056 1909 8 SI MM NOT_NAMED 1909-03-06 18:00:00 NR -15.7718 45.6823 main 11 11 _____P________ -1 -15.7718 45.6823 99 2 252
1909060S13056 1909 8 SI MM NOT_NAMED 1909-03-06 21:00:00 NR -15.8062 45.5738 main 11 11 _____P________ -1 -15.8062 45.5738 99 2 251
1909060S13056 1909 8 SI MM NOT_NAMED 1909-03-07 00:00:00 NR -15.8386 45.4764 main 15 11 _____P________ -1 -15.8386 45.4764 99 2 251
1909060S13056 1909 8 SI MM NOT_NAMED 1909-03-07 03:00:00 NR -15.8697 45.3864 main 11 11 _____P________ -1 -15.8697 45.3864 99 2 250
1909060S13056 1909 8 SI MM NOT_NAMED 1909-03-07 06:00:00 NR -15.9000 45.3000 reunion main 15 _____O________ -1 -15.9000 45.3000 99 9.90000 2 250

About IBTrACS Database

This database is a web-friendly format of International Best Track Archive for Climate Stewardship (IBTrACS), a global best track data archive curated by NOAA dating back to 1842.

Updated: 2021-11-26